createdAt,value
2018-06-16T00:00:33.446Z,101134.00
2018-06-16T00:03:02.621Z,101130.00
2018-06-16T00:05:31.754Z,101129.00
2018-06-16T00:08:00.940Z,101126.00
2018-06-16T00:10:30.103Z,101127.00
2018-06-16T00:12:59.327Z,101128.00
2018-06-16T00:15:28.468Z,101140.00
2018-06-16T00:17:57.648Z,101129.00
2018-06-16T00:20:26.999Z,101134.00
2018-06-16T00:22:56.136Z,101130.00
2018-06-16T00:25:25.245Z,101128.00
2018-06-16T00:27:54.358Z,101137.00
2018-06-16T00:30:23.549Z,101131.00
2018-06-16T00:32:52.681Z,101131.00
2018-06-16T00:35:21.824Z,101136.00
2018-06-16T00:37:51.174Z,101133.00
2018-06-16T00:40:20.260Z,101139.00
2018-06-16T00:42:49.430Z,101143.00
2018-06-16T00:45:18.599Z,101133.00
2018-06-16T00:47:47.794Z,101141.00
2018-06-16T00:50:16.961Z,101140.00
2018-06-16T00:52:46.104Z,101133.00
2018-06-16T00:55:15.272Z,101141.00
2018-06-16T00:57:49.141Z,101142.00
2018-06-16T01:00:19.143Z,101148.00
2018-06-16T01:02:48.720Z,101146.00
2018-06-16T01:05:17.889Z,101148.00
2018-06-16T01:07:47.038Z,101143.00
2018-06-16T01:10:16.220Z,101153.00
2018-06-16T01:12:45.363Z,101152.00
2018-06-16T01:15:14.566Z,101144.00
2018-06-16T01:17:43.714Z,101149.00
2018-06-16T01:20:12.877Z,101139.00
2018-06-16T01:22:42.031Z,101144.00
2018-06-16T01:25:11.177Z,101142.00
2018-06-16T01:27:40.363Z,101142.00
2018-06-16T01:30:09.553Z,101144.00
2018-06-16T01:32:38.625Z,101143.00
2018-06-16T01:35:07.793Z,101143.00
2018-06-16T01:37:36.940Z,101137.00
2018-06-16T01:40:06.115Z,101146.00
2018-06-16T01:42:35.305Z,101135.00
2018-06-16T01:45:04.513Z,101134.00
2018-06-16T01:47:33.655Z,101136.00
2018-06-16T01:50:02.790Z,101142.00
2018-06-16T01:52:31.881Z,101141.00
2018-06-16T01:55:01.021Z,101141.00
2018-06-16T01:57:30.217Z,101144.00
2018-06-16T01:59:59.337Z,101139.00
2018-06-16T02:02:28.475Z,101142.00
2018-06-16T02:04:57.689Z,101130.00
2018-06-16T02:07:26.894Z,101130.00
2018-06-16T02:09:56.280Z,101123.00
2018-06-16T02:12:25.471Z,101126.00
2018-06-16T02:14:54.585Z,101113.00
2018-06-16T02:17:23.809Z,101122.00
2018-06-16T02:19:52.986Z,101120.00
2018-06-16T02:22:22.096Z,101119.00
2018-06-16T02:24:51.309Z,101122.00
2018-06-16T02:27:20.425Z,101117.00
2018-06-16T02:29:49.524Z,101113.00
2018-06-16T02:32:18.687Z,101120.00
2018-06-16T02:34:47.823Z,101114.00
2018-06-16T02:37:17.011Z,101119.00
2018-06-16T02:39:46.134Z,101110.00
2018-06-16T02:42:15.335Z,101113.00
2018-06-16T02:44:44.534Z,101116.00
2018-06-16T02:47:13.702Z,101096.00
2018-06-16T02:49:42.880Z,101109.00
2018-06-16T02:52:12.037Z,101113.00
2018-06-16T02:54:41.229Z,101122.00
2018-06-16T02:57:10.356Z,101121.00
2018-06-16T02:59:39.573Z,101119.00
2018-06-16T03:02:08.904Z,101116.00
2018-06-16T03:04:37.997Z,101105.00
2018-06-16T03:07:07.154Z,101120.00
2018-06-16T03:09:36.313Z,101114.00
2018-06-16T03:12:05.497Z,101110.00
2018-06-16T03:14:34.605Z,101107.00
2018-06-16T03:17:03.905Z,101106.00
2018-06-16T03:19:33.096Z,101107.00
2018-06-16T03:22:02.242Z,101119.00
2018-06-16T03:24:31.392Z,101113.00
2018-06-16T03:27:00.577Z,101110.00
2018-06-16T03:29:29.736Z,101107.00
2018-06-16T03:31:58.894Z,101113.00
2018-06-16T03:34:28.124Z,101110.00
2018-06-16T03:36:57.335Z,101111.00
2018-06-16T03:39:26.501Z,101114.00
2018-06-16T03:41:55.662Z,101111.00
2018-06-16T03:44:24.806Z,101111.00
2018-06-16T03:46:53.971Z,101112.00
2018-06-16T03:49:23.181Z,101109.00
2018-06-16T03:51:52.255Z,101118.00
2018-06-16T03:54:21.397Z,101107.00
2018-06-16T03:56:50.536Z,101116.00
2018-06-16T03:59:19.656Z,101116.00
2018-06-16T04:01:48.782Z,101113.00
2018-06-16T04:04:17.840Z,101114.00
2018-06-16T04:06:47.053Z,101117.00
2018-06-16T04:09:16.218Z,101118.00
2018-06-16T04:11:45.361Z,101119.00
2018-06-16T04:14:14.510Z,101111.00
2018-06-16T04:16:43.838Z,101117.00
2018-06-16T04:19:12.982Z,101111.00
2018-06-16T04:21:42.281Z,101107.00
2018-06-16T04:24:11.437Z,101106.00
2018-06-16T04:26:40.580Z,101113.00
2018-06-16T04:29:09.779Z,101107.00
2018-06-16T04:31:38.935Z,101106.00
2018-06-16T04:34:08.094Z,101105.00
2018-06-16T04:36:37.321Z,101100.00
2018-06-16T04:39:09.416Z,101100.00
2018-06-16T04:41:38.666Z,101106.00
2018-06-16T04:44:07.855Z,101101.00
2018-06-16T04:46:37.064Z,101104.00
2018-06-16T04:49:06.348Z,101107.00
2018-06-16T04:51:35.553Z,101102.00
2018-06-16T04:54:04.773Z,101112.00
2018-06-16T04:56:33.953Z,101101.00
2018-06-16T04:59:03.044Z,101100.00
2018-06-16T05:01:32.236Z,101099.00
2018-06-16T05:04:01.426Z,101103.00
2018-06-16T05:06:30.594Z,101108.00
2018-06-16T05:08:59.775Z,101108.00
2018-06-16T05:11:28.940Z,101101.00
2018-06-16T05:13:58.147Z,101112.00
2018-06-16T05:16:27.323Z,101107.00
2018-06-16T05:18:56.488Z,101112.00
2018-06-16T05:21:25.604Z,101106.00
2018-06-16T05:23:54.790Z,101096.00
2018-06-16T05:26:24.793Z,101094.00
2018-06-16T05:28:54.018Z,101099.00
2018-06-16T05:31:23.172Z,101094.00
2018-06-16T05:33:52.361Z,101110.00
2018-06-16T05:36:21.854Z,101096.00
2018-06-16T05:38:50.992Z,101103.00
2018-06-16T05:41:20.093Z,101096.00
2018-06-16T05:43:49.265Z,101091.00
2018-06-16T05:46:18.462Z,101100.00
2018-06-16T05:48:47.617Z,101108.00
2018-06-16T05:51:16.895Z,101108.00
2018-06-16T05:53:46.048Z,101106.00
2018-06-16T05:56:15.264Z,101105.00
2018-06-16T05:58:44.428Z,101111.00
2018-06-16T06:01:13.578Z,101108.00
2018-06-16T06:03:42.724Z,101106.00
2018-06-16T06:06:11.885Z,101107.00
2018-06-16T06:08:41.029Z,101110.00
2018-06-16T06:11:10.537Z,101120.00
2018-06-16T06:13:39.709Z,101120.00
2018-06-16T06:16:08.829Z,101115.00
2018-06-16T06:18:38.352Z,101113.00
2018-06-16T06:21:07.487Z,101119.00
2018-06-16T06:23:36.618Z,101119.00
2018-06-16T06:26:05.825Z,101124.00
2018-06-16T06:28:34.946Z,101129.00
2018-06-16T06:31:04.154Z,101125.00
2018-06-16T06:33:33.354Z,101127.00
2018-06-16T06:36:02.508Z,101128.00
2018-06-16T06:38:31.664Z,101129.00
2018-06-16T06:41:00.814Z,101128.00
2018-06-16T06:43:30.059Z,101128.00
2018-06-16T06:45:59.162Z,101122.00
2018-06-16T06:48:28.477Z,101121.00
2018-06-16T06:50:57.764Z,101126.00
2018-06-16T06:53:26.865Z,101125.00
2018-06-16T06:55:56.042Z,101130.00
2018-06-16T06:58:25.186Z,101124.00
2018-06-16T07:00:54.430Z,101120.00
2018-06-16T07:03:23.617Z,101124.00
2018-06-16T07:05:52.834Z,101123.00
2018-06-16T07:08:22.330Z,101132.00
2018-06-16T07:10:51.516Z,101125.00
2018-06-16T07:13:20.580Z,101119.00
2018-06-16T07:15:49.788Z,101120.00
2018-06-16T07:18:19.007Z,101114.00
2018-06-16T07:20:48.179Z,101111.00
2018-06-16T07:23:17.341Z,101107.00
2018-06-16T07:25:46.501Z,101119.00
2018-06-16T07:28:15.645Z,101111.00
2018-06-16T07:30:45.063Z,101112.00
2018-06-16T07:33:14.190Z,101115.00
2018-06-16T07:35:43.382Z,101118.00
2018-06-16T07:38:12.475Z,101112.00
2018-06-16T07:40:41.616Z,101113.00
2018-06-16T07:43:10.771Z,101115.00
2018-06-16T07:45:39.939Z,101105.00
2018-06-16T07:48:09.109Z,101110.00
2018-06-16T07:50:38.205Z,101107.00
2018-06-16T07:53:07.337Z,101112.00
2018-06-16T07:55:36.471Z,101108.00
2018-06-16T07:58:05.629Z,101106.00
2018-06-16T08:00:34.797Z,101110.00
2018-06-16T08:03:03.970Z,101112.00
2018-06-16T08:05:33.129Z,101113.00
2018-06-16T08:08:02.311Z,101112.00
2018-06-16T08:10:31.416Z,101107.00
2018-06-16T08:13:00.605Z,101112.00
2018-06-16T08:15:29.766Z,101108.00
2018-06-16T08:17:58.962Z,101109.00
2018-06-16T08:20:28.096Z,101106.00
2018-06-16T08:22:57.256Z,101102.00
2018-06-16T08:25:26.431Z,101103.00
2018-06-16T08:27:55.554Z,101099.00
2018-06-16T08:30:24.734Z,101100.00
2018-06-16T08:32:53.881Z,101090.00
2018-06-16T08:35:23.021Z,101100.00
2018-06-16T08:37:52.647Z,101099.00
2018-06-16T08:40:21.878Z,101108.00
2018-06-16T08:42:51.040Z,101091.00
2018-06-16T08:45:20.230Z,101105.00
2018-06-16T08:47:49.408Z,101095.00
2018-06-16T08:50:18.472Z,101094.00
2018-06-16T08:52:47.611Z,101088.00
2018-06-16T08:55:16.997Z,101101.00
2018-06-16T08:57:46.184Z,101093.00
2018-06-16T09:00:15.307Z,101090.00
2018-06-16T09:02:44.501Z,101092.00
2018-06-16T09:05:13.697Z,101081.00
2018-06-16T09:07:42.847Z,101091.00
2018-06-16T09:10:11.984Z,101087.00
2018-06-16T09:12:41.101Z,101091.00
2018-06-16T09:15:10.304Z,101095.00
2018-06-16T09:17:39.406Z,101091.00
2018-06-16T09:20:08.526Z,101082.00
2018-06-16T09:22:37.674Z,101085.00
2018-06-16T09:25:06.799Z,101075.00
2018-06-16T09:27:35.925Z,101078.00
2018-06-16T09:30:05.146Z,101084.00
2018-06-16T09:32:34.252Z,101084.00
2018-06-16T09:35:03.585Z,101084.00
2018-06-16T09:37:32.740Z,101087.00
2018-06-16T09:40:01.934Z,101082.00
2018-06-16T09:42:31.138Z,101082.00
2018-06-16T09:45:00.340Z,101079.00
2018-06-16T09:47:29.567Z,101082.00
2018-06-16T09:49:58.709Z,101082.00
2018-06-16T09:52:27.856Z,101080.00
2018-06-16T09:54:56.980Z,101078.00
2018-06-16T09:57:26.152Z,101081.00
2018-06-16T09:59:55.327Z,101067.00
2018-06-16T10:02:24.462Z,101076.00
2018-06-16T10:04:53.757Z,101070.00
2018-06-16T10:07:22.921Z,101074.00
2018-06-16T10:09:52.108Z,101077.00
2018-06-16T10:12:21.250Z,101059.00
2018-06-16T10:14:50.417Z,101062.00
2018-06-16T10:17:19.553Z,101047.00
2018-06-16T10:19:48.726Z,101047.00
2018-06-16T10:22:17.930Z,101042.00
2018-06-16T10:24:47.220Z,101047.00
2018-06-16T10:27:16.417Z,101037.00
2018-06-16T10:29:45.555Z,101042.00
2018-06-16T10:32:14.675Z,101035.00
2018-06-16T10:34:43.842Z,101027.00
2018-06-16T10:37:12.995Z,101030.00
2018-06-16T10:39:42.195Z,101032.00
2018-06-16T10:42:11.329Z,101024.00
2018-06-16T10:44:40.531Z,101029.00
2018-06-16T10:47:10.080Z,101018.00
2018-06-16T10:49:39.206Z,101030.00
2018-06-16T10:52:08.346Z,101031.00
2018-06-16T10:54:37.451Z,101023.00
2018-06-16T10:57:06.579Z,101025.00
2018-06-16T10:59:35.762Z,101031.00
2018-06-16T11:02:05.186Z,101014.00
2018-06-16T11:04:34.312Z,101016.00
2018-06-16T11:07:03.587Z,101013.00
2018-06-16T11:09:32.744Z,101015.00
2018-06-16T11:12:01.920Z,101017.00
2018-06-16T11:14:31.121Z,101013.00
2018-06-16T11:17:00.295Z,101013.00
2018-06-16T11:19:29.624Z,101006.00
2018-06-16T11:21:58.834Z,101017.00
2018-06-16T11:24:27.978Z,101009.00
2018-06-16T11:26:57.231Z,101006.00
2018-06-16T11:29:26.415Z,101003.00
2018-06-16T11:31:55.563Z,100999.00
2018-06-16T11:34:24.411Z,101003.00
2018-06-16T11:36:53.631Z,101003.00
2018-06-16T11:39:22.720Z,101009.00
2018-06-16T11:41:51.799Z,100997.00
2018-06-16T11:44:21.096Z,100994.00
2018-06-16T11:46:50.254Z,100998.00
2018-06-16T11:49:19.433Z,100992.00
2018-06-16T11:51:48.553Z,100995.00
2018-06-16T11:54:17.712Z,100986.00
2018-06-16T11:56:46.897Z,100985.00
2018-06-16T11:59:16.013Z,100987.00
2018-06-16T12:01:45.169Z,100978.00
2018-06-16T12:04:14.777Z,100978.00
2018-06-16T12:06:43.955Z,100980.00
2018-06-16T12:09:13.727Z,100985.00
2018-06-16T12:11:42.948Z,100971.00
2018-06-16T12:14:12.097Z,100976.00
2018-06-16T12:16:41.243Z,100968.00
2018-06-16T12:19:10.426Z,100967.00
2018-06-16T12:21:39.598Z,100969.00
2018-06-16T12:24:08.765Z,100971.00
2018-06-16T12:26:37.876Z,100962.00
2018-06-16T12:29:07.000Z,100963.00
2018-06-16T12:31:36.194Z,100960.00
2018-06-16T12:34:05.343Z,100974.00
2018-06-16T12:36:34.447Z,100964.00
2018-06-16T12:39:09.012Z,100957.00
2018-06-16T12:41:38.150Z,100958.00
2018-06-16T12:44:07.555Z,100965.00
2018-06-16T12:46:36.695Z,100953.00
2018-06-16T12:49:05.905Z,100946.00
2018-06-16T12:51:35.199Z,100960.00
2018-06-16T12:54:04.409Z,100949.00
2018-06-16T12:56:33.623Z,100955.00
2018-06-16T12:59:02.763Z,100947.00
2018-06-16T13:01:31.900Z,100943.00
2018-06-16T13:04:01.120Z,100944.00
2018-06-16T13:06:30.296Z,100943.00
2018-06-16T13:08:59.429Z,100937.00
2018-06-16T13:11:28.573Z,100946.00
2018-06-16T13:13:57.735Z,100938.00
2018-06-16T13:16:26.884Z,100925.00
2018-06-16T13:18:56.134Z,100940.00
2018-06-16T13:21:25.304Z,100943.00
2018-06-16T13:23:54.412Z,100937.00
2018-06-16T13:26:23.602Z,100936.00
2018-06-16T13:28:52.756Z,100944.00
2018-06-16T13:31:21.861Z,100935.00
2018-06-16T13:33:51.140Z,100933.00
2018-06-16T13:36:20.335Z,100925.00
2018-06-16T13:38:49.559Z,100924.00
2018-06-16T13:41:18.706Z,100928.00
2018-06-16T13:43:47.955Z,100926.00
2018-06-16T13:46:17.143Z,100916.00
2018-06-16T13:48:46.321Z,100910.00
2018-06-16T13:51:15.487Z,100912.00
2018-06-16T13:53:44.738Z,100905.00
2018-06-16T13:56:13.911Z,100897.00
2018-06-16T13:58:43.021Z,100898.00
2018-06-16T14:01:12.166Z,100895.00
2018-06-16T14:03:41.355Z,100896.00
2018-06-16T14:06:10.507Z,100891.00
2018-06-16T14:08:39.664Z,100888.00
2018-06-16T14:11:08.845Z,100887.00
2018-06-16T14:13:37.993Z,100890.00
2018-06-16T14:16:07.158Z,100892.00
2018-06-16T14:18:36.332Z,100884.00
2018-06-16T14:21:05.487Z,100888.00
2018-06-16T14:23:34.646Z,100884.00
2018-06-16T14:26:03.802Z,100888.00
2018-06-16T14:28:33.003Z,100890.00
2018-06-16T14:31:02.117Z,100878.00
2018-06-16T14:33:31.258Z,100878.00
2018-06-16T14:36:00.433Z,100880.00
2018-06-16T14:38:29.596Z,100879.00
2018-06-16T14:40:58.721Z,100882.00
2018-06-16T14:43:27.921Z,100873.00
2018-06-16T14:45:57.094Z,100869.00
2018-06-16T14:48:26.269Z,100871.00
2018-06-16T14:50:55.432Z,100866.00
2018-06-16T14:53:24.650Z,100870.00
2018-06-16T14:55:53.874Z,100861.00
2018-06-16T14:58:25.674Z,100865.00
2018-06-16T15:00:55.904Z,100869.00
2018-06-16T15:03:25.124Z,100855.00
2018-06-16T15:05:54.381Z,100868.00
2018-06-16T15:08:23.532Z,100860.00
2018-06-16T15:10:53.264Z,100851.00
2018-06-16T15:13:23.181Z,100846.00
2018-06-16T15:15:52.726Z,100855.00
2018-06-16T15:18:21.868Z,100850.00
2018-06-16T15:20:51.070Z,100846.00
2018-06-16T15:23:20.235Z,100838.00
2018-06-16T15:25:49.340Z,100843.00
2018-06-16T15:28:18.543Z,100845.00
2018-06-16T15:30:47.797Z,100843.00
2018-06-16T15:33:16.943Z,100844.00
2018-06-16T15:35:46.081Z,100839.00
2018-06-16T15:38:15.196Z,100827.00
2018-06-16T15:40:44.399Z,100827.00
2018-06-16T15:43:13.578Z,100827.00
2018-06-16T15:45:42.817Z,100818.00
2018-06-16T15:48:11.963Z,100819.00
2018-06-16T15:50:41.750Z,100825.00
2018-06-16T15:53:10.930Z,100816.00
2018-06-16T15:55:40.095Z,100820.00
2018-06-16T15:58:09.218Z,100826.00
2018-06-16T16:00:38.367Z,100824.00
2018-06-16T16:03:07.496Z,100815.00
2018-06-16T16:05:36.673Z,100801.00
2018-06-16T16:08:05.744Z,100818.00
2018-06-16T16:10:35.010Z,100815.00
2018-06-16T16:13:04.159Z,100817.00
2018-06-16T16:15:33.282Z,100809.00
2018-06-16T16:18:02.390Z,100812.00
2018-06-16T16:20:31.557Z,100816.00
2018-06-16T16:23:00.665Z,100813.00
2018-06-16T16:25:29.830Z,100818.00
2018-06-16T16:27:58.981Z,100818.00
2018-06-16T16:30:28.127Z,100819.00
2018-06-16T16:32:57.273Z,100816.00
2018-06-16T16:35:26.410Z,100818.00
2018-06-16T16:37:55.586Z,100817.00
2018-06-16T16:40:25.360Z,100821.00
2018-06-16T16:42:54.505Z,100817.00
2018-06-16T16:45:23.675Z,100816.00
2018-06-16T16:47:52.900Z,100822.00
2018-06-16T16:50:22.067Z,100815.00
2018-06-16T16:52:51.253Z,100813.00
2018-06-16T16:55:20.424Z,100807.00
2018-06-16T16:57:49.574Z,100813.00
2018-06-16T17:00:18.767Z,100804.00
2018-06-16T17:02:47.899Z,100809.00
2018-06-16T17:05:17.092Z,100804.00
2018-06-16T17:07:46.306Z,100807.00
2018-06-16T17:10:15.452Z,100806.00
2018-06-16T17:12:44.679Z,100810.00
2018-06-16T17:15:13.949Z,100817.00
2018-06-16T17:17:43.063Z,100807.00
2018-06-16T17:20:12.244Z,100809.00
2018-06-16T17:22:41.351Z,100799.00
2018-06-16T17:25:10.549Z,100796.00
2018-06-16T17:27:39.747Z,100807.00
2018-06-16T17:30:08.934Z,100806.00
2018-06-16T17:32:38.054Z,100803.00
2018-06-16T17:35:07.202Z,100808.00
2018-06-16T17:37:36.344Z,100799.00
2018-06-16T17:40:06.111Z,100792.00
2018-06-16T17:42:35.222Z,100798.00
2018-06-16T17:45:04.437Z,100797.00
2018-06-16T17:47:33.601Z,100800.00
2018-06-16T17:50:02.708Z,100797.00
2018-06-16T17:52:31.879Z,100797.00
2018-06-16T17:55:01.059Z,100802.00
2018-06-16T17:57:30.140Z,100796.00
2018-06-16T17:59:59.240Z,100797.00
2018-06-16T18:02:28.418Z,100797.00
2018-06-16T18:04:57.569Z,100797.00
2018-06-16T18:07:26.657Z,100798.00
2018-06-16T18:09:55.969Z,100795.00
2018-06-16T18:12:25.308Z,100791.00
2018-06-16T18:14:54.478Z,100798.00
2018-06-16T18:17:23.609Z,100797.00
2018-06-16T18:19:52.793Z,100795.00
2018-06-16T18:22:21.893Z,100791.00
2018-06-16T18:24:51.059Z,100794.00
2018-06-16T18:27:20.169Z,100789.00
2018-06-16T18:29:51.413Z,100797.00
2018-06-16T18:32:20.597Z,100786.00
2018-06-16T18:34:49.736Z,100792.00
2018-06-16T18:37:18.832Z,100791.00
2018-06-16T18:39:47.958Z,100793.00
2018-06-16T18:42:17.106Z,100790.00
2018-06-16T18:44:46.290Z,100797.00
2018-06-16T18:47:15.462Z,100791.00
2018-06-16T18:49:44.842Z,100792.00
2018-06-16T18:52:13.986Z,100798.00
2018-06-16T18:54:43.102Z,100790.00
2018-06-16T18:57:12.280Z,100789.00
2018-06-16T18:59:41.450Z,100793.00
2018-06-16T19:02:10.600Z,100795.00
2018-06-16T19:04:39.712Z,100795.00
2018-06-16T19:07:08.892Z,100797.00
2018-06-16T19:09:38.071Z,100790.00
2018-06-16T19:12:07.261Z,100795.00
2018-06-16T19:14:36.468Z,100792.00
2018-06-16T19:17:05.618Z,100796.00
2018-06-16T19:19:34.813Z,100795.00
2018-06-16T19:22:04.002Z,100801.00
2018-06-16T19:24:33.197Z,100795.00
2018-06-16T19:27:02.420Z,100801.00
2018-06-16T19:29:31.537Z,100799.00
2018-06-16T19:32:00.685Z,100807.00
2018-06-16T19:34:29.793Z,100810.00
2018-06-16T19:36:58.967Z,100811.00
2018-06-16T19:39:28.093Z,100810.00
2018-06-16T19:41:57.240Z,100807.00
2018-06-16T19:44:26.438Z,100800.00
2018-06-16T19:46:55.639Z,100807.00
2018-06-16T19:49:24.903Z,100805.00
2018-06-16T19:51:54.056Z,100810.00
2018-06-16T19:54:23.189Z,100809.00
2018-06-16T19:56:52.371Z,100818.00
2018-06-16T19:59:21.524Z,100806.00
2018-06-16T20:01:50.714Z,100812.00
2018-06-16T20:04:19.870Z,100808.00
2018-06-16T20:06:49.053Z,100811.00
2018-06-16T20:09:18.196Z,100808.00
2018-06-16T20:11:47.421Z,100805.00
2018-06-16T20:14:16.618Z,100814.00
2018-06-16T20:16:45.778Z,100808.00
2018-06-16T20:19:14.928Z,100804.00
2018-06-16T20:21:44.101Z,100809.00
2018-06-16T20:24:13.306Z,100805.00
2018-06-16T20:26:42.563Z,100809.00
2018-06-16T20:29:11.707Z,100803.00
2018-06-16T20:31:40.864Z,100810.00
2018-06-16T20:34:10.052Z,100813.00
2018-06-16T20:36:39.249Z,100813.00
2018-06-16T20:39:08.598Z,100809.00
2018-06-16T20:41:37.894Z,100808.00
2018-06-16T20:44:07.094Z,100815.00
2018-06-16T20:46:36.254Z,100820.00
2018-06-16T20:49:05.488Z,100809.00
2018-06-16T20:51:34.689Z,100820.00
2018-06-16T20:54:03.935Z,100820.00
2018-06-16T20:56:33.084Z,100812.00
2018-06-16T20:59:02.867Z,100823.00
2018-06-16T21:01:31.996Z,100826.00
2018-06-16T21:04:01.129Z,100821.00
2018-06-16T21:06:30.247Z,100819.00
2018-06-16T21:08:59.313Z,100819.00
2018-06-16T21:11:28.506Z,100816.00
2018-06-16T21:13:57.730Z,100807.00
2018-06-16T21:16:26.927Z,100805.00
2018-06-16T21:18:56.104Z,100810.00
2018-06-16T21:21:25.340Z,100805.00
2018-06-16T21:23:54.476Z,100800.00
2018-06-16T21:26:23.634Z,100809.00
2018-06-16T21:28:52.771Z,100809.00
2018-06-16T21:31:22.003Z,100808.00
2018-06-16T21:33:51.108Z,100817.00
2018-06-16T21:36:20.229Z,100804.00
2018-06-16T21:38:49.409Z,100813.00
2018-06-16T21:41:18.553Z,100816.00
2018-06-16T21:43:47.709Z,100821.00
2018-06-16T21:46:16.864Z,100813.00
2018-06-16T21:48:45.984Z,100813.00
2018-06-16T21:51:15.199Z,100815.00
2018-06-16T21:53:44.866Z,100813.00
2018-06-16T21:56:14.010Z,100811.00
2018-06-16T21:58:43.218Z,100816.00
2018-06-16T22:01:12.419Z,100812.00
2018-06-16T22:03:41.572Z,100815.00
2018-06-16T22:06:10.691Z,100809.00
2018-06-16T22:08:39.883Z,100806.00
2018-06-16T22:11:09.009Z,100813.00
2018-06-16T22:13:38.173Z,100814.00
2018-06-16T22:16:07.297Z,100808.00
2018-06-16T22:18:36.469Z,100817.00
2018-06-16T22:21:05.602Z,100811.00
2018-06-16T22:23:34.756Z,100815.00
2018-06-16T22:26:04.325Z,100821.00
2018-06-16T22:28:33.435Z,100822.00
2018-06-16T22:31:02.930Z,100822.00
2018-06-16T22:33:32.101Z,100818.00
2018-06-16T22:36:01.275Z,100822.00
2018-06-16T22:38:30.401Z,100821.00
2018-06-16T22:40:59.576Z,100820.00
2018-06-16T22:43:28.730Z,100827.00
2018-06-16T22:45:57.887Z,100822.00
2018-06-16T22:48:27.035Z,100824.00
2018-06-16T22:50:56.194Z,100819.00
2018-06-16T22:53:25.337Z,100817.00
2018-06-16T22:55:55.457Z,100817.00
2018-06-16T22:58:24.633Z,100820.00
2018-06-16T23:00:53.833Z,100821.00
2018-06-16T23:03:23.005Z,100814.00
2018-06-16T23:05:52.169Z,100811.00
2018-06-16T23:08:21.323Z,100814.00
2018-06-16T23:10:50.470Z,100814.00
2018-06-16T23:13:19.581Z,100804.00
2018-06-16T23:15:48.726Z,100807.00
2018-06-16T23:18:17.912Z,100815.00
2018-06-16T23:20:47.154Z,100803.00
2018-06-16T23:23:16.293Z,100807.00
2018-06-16T23:25:45.542Z,100805.00
2018-06-16T23:28:14.677Z,100803.00
2018-06-16T23:30:43.813Z,100798.00
2018-06-16T23:33:12.940Z,100801.00
2018-06-16T23:35:42.065Z,100797.00
2018-06-16T23:38:11.267Z,100794.00
2018-06-16T23:40:40.494Z,100792.00
2018-06-16T23:43:09.697Z,100790.00
2018-06-16T23:45:38.840Z,100799.00
2018-06-16T23:48:07.976Z,100795.00
2018-06-16T23:50:37.236Z,100800.00
2018-06-16T23:53:06.397Z,100787.00
2018-06-16T23:55:35.570Z,100797.00
2018-06-16T23:58:04.668Z,100792.00
